sensor_id;sensor_type;location;lat;lon;timestamp;temperature;humidity
70051;SHT30;57391;51.306;22.680;2023-02-24T00:01:53;5.43;70.93
70051;SHT30;57391;51.306;22.680;2023-02-24T00:04:27;5.44;70.86
70051;SHT30;57391;51.306;22.680;2023-02-24T00:07:01;5.46;70.84
70051;SHT30;57391;51.306;22.680;2023-02-24T00:09:29;5.48;70.81
70051;SHT30;57391;51.306;22.680;2023-02-24T00:11:57;5.50;70.82
70051;SHT30;57391;51.306;22.680;2023-02-24T00:14:29;5.52;70.84
70051;SHT30;57391;51.306;22.680;2023-02-24T00:17:00;5.55;70.79
70051;SHT30;57391;51.306;22.680;2023-02-24T00:19:29;5.57;70.71
70051;SHT30;57391;51.306;22.680;2023-02-24T00:22:00;5.57;70.66
70051;SHT30;57391;51.306;22.680;2023-02-24T00:24:28;5.60;70.63
70051;SHT30;57391;51.306;22.680;2023-02-24T00:26:58;5.61;70.70
70051;SHT30;57391;51.306;22.680;2023-02-24T00:29:28;5.61;70.70
70051;SHT30;57391;51.306;22.680;2023-02-24T00:31:56;5.63;70.70
70051;SHT30;57391;51.306;22.680;2023-02-24T00:34:33;5.66;70.73
70051;SHT30;57391;51.306;22.680;2023-02-24T00:37:03;5.67;70.69
70051;SHT30;57391;51.306;22.680;2023-02-24T00:39:37;5.68;70.70
70051;SHT30;57391;51.306;22.680;2023-02-24T00:42:06;5.69;70.67
70051;SHT30;57391;51.306;22.680;2023-02-24T00:44:44;5.71;70.61
70051;SHT30;57391;51.306;22.680;2023-02-24T00:47:14;5.73;70.69
70051;SHT30;57391;51.306;22.680;2023-02-24T00:49:43;5.75;70.66
70051;SHT30;57391;51.306;22.680;2023-02-24T00:52:12;5.78;70.60
70051;SHT30;57391;51.306;22.680;2023-02-24T00:54:44;5.79;70.67
70051;SHT30;57391;51.306;22.680;2023-02-24T00:57:14;5.80;70.67
70051;SHT30;57391;51.306;22.680;2023-02-24T00:59:46;5.81;70.62
70051;SHT30;57391;51.306;22.680;2023-02-24T01:02:13;5.83;70.60
70051;SHT30;57391;51.306;22.680;2023-02-24T01:04:41;5.84;70.62
70051;SHT30;57391;51.306;22.680;2023-02-24T01:07:10;5.85;70.60
70051;SHT30;57391;51.306;22.680;2023-02-24T01:09:39;5.87;70.60
70051;SHT30;57391;51.306;22.680;2023-02-24T01:12:10;5.89;70.58
70051;SHT30;57391;51.306;22.680;2023-02-24T01:14:57;5.91;70.62
70051;SHT30;57391;51.306;22.680;2023-02-24T01:17:24;5.93;70.60
70051;SHT30;57391;51.306;22.680;2023-02-24T01:19:52;5.94;70.58
70051;SHT30;57391;51.306;22.680;2023-02-24T01:22:21;5.95;70.59
70051;SHT30;57391;51.306;22.680;2023-02-24T01:24:49;5.98;70.59
70051;SHT30;57391;51.306;22.680;2023-02-24T01:27:17;5.98;70.60
70051;SHT30;57391;51.306;22.680;2023-02-24T01:29:45;5.99;70.54
70051;SHT30;57391;51.306;22.680;2023-02-24T01:32:17;6.01;70.50
70051;SHT30;57391;51.306;22.680;2023-02-24T01:34:47;6.02;70.52
70051;SHT30;57391;51.306;22.680;2023-02-24T01:37:18;6.03;70.55
70051;SHT30;57391;51.306;22.680;2023-02-24T01:39:46;6.04;70.47
70051;SHT30;57391;51.306;22.680;2023-02-24T01:42:15;6.05;70.55
70051;SHT30;57391;51.306;22.680;2023-02-24T01:47:14;6.08;70.48
70051;SHT30;57391;51.306;22.680;2023-02-24T01:49:46;6.09;70.50
70051;SHT30;57391;51.306;22.680;2023-02-24T01:52:20;6.11;70.45
70051;SHT30;57391;51.306;22.680;2023-02-24T01:57:41;6.15;70.43
70051;SHT30;57391;51.306;22.680;2023-02-24T02:00:09;6.17;70.43
70051;SHT30;57391;51.306;22.680;2023-02-24T02:03:01;6.18;70.40
70051;SHT30;57391;51.306;22.680;2023-02-24T02:05:38;6.19;70.40
70051;SHT30;57391;51.306;22.680;2023-02-24T02:08:07;6.20;70.49
70051;SHT30;57391;51.306;22.680;2023-02-24T02:10:38;6.22;70.50
70051;SHT30;57391;51.306;22.680;2023-02-24T02:13:10;6.22;70.39
70051;SHT30;57391;51.306;22.680;2023-02-24T02:15:48;6.22;70.38
70051;SHT30;57391;51.306;22.680;2023-02-24T02:18:46;6.22;70.37
70051;SHT30;57391;51.306;22.680;2023-02-24T02:21:57;6.21;70.38
70051;SHT30;57391;51.306;22.680;2023-02-24T02:27:26;6.22;70.46
70051;SHT30;57391;51.306;22.680;2023-02-24T02:30:37;6.22;70.51
70051;SHT30;57391;51.306;22.680;2023-02-24T02:38:50;6.24;70.59
70051;SHT30;57391;51.306;22.680;2023-02-24T02:41:26;6.28;70.62
70051;SHT30;57391;51.306;22.680;2023-02-24T02:44:06;6.29;70.64
70051;SHT30;57391;51.306;22.680;2023-02-24T02:46:45;6.32;70.64
70051;SHT30;57391;51.306;22.680;2023-02-24T02:49:29;6.33;70.70
70051;SHT30;57391;51.306;22.680;2023-02-24T02:52:04;6.34;70.67
70051;SHT30;57391;51.306;22.680;2023-02-24T02:54:47;6.35;70.70
70051;SHT30;57391;51.306;22.680;2023-02-24T02:57:30;6.35;70.80
70051;SHT30;57391;51.306;22.680;2023-02-24T03:00:44;6.36;70.81
70051;SHT30;57391;51.306;22.680;2023-02-24T03:03:08;6.36;70.88
70051;SHT30;57391;51.306;22.680;2023-02-24T03:05:46;6.37;70.93
70051;SHT30;57391;51.306;22.680;2023-02-24T03:08:22;6.38;70.99
70051;SHT30;57391;51.306;22.680;2023-02-24T03:10:58;6.38;71.01
70051;SHT30;57391;51.306;22.680;2023-02-24T03:13:28;6.38;71.08
70051;SHT30;57391;51.306;22.680;2023-02-24T03:16:03;6.39;71.18
70051;SHT30;57391;51.306;22.680;2023-02-24T03:18:32;6.40;71.22
70051;SHT30;57391;51.306;22.680;2023-02-24T03:21:12;6.41;71.24
70051;SHT30;57391;51.306;22.680;2023-02-24T03:23:51;6.43;71.30
70051;SHT30;57391;51.306;22.680;2023-02-24T03:26:35;6.45;71.32
70051;SHT30;57391;51.306;22.680;2023-02-24T03:29:23;6.46;71.35
70051;SHT30;57391;51.306;22.680;2023-02-24T03:32:11;6.47;71.30
70051;SHT30;57391;51.306;22.680;2023-02-24T03:37:48;6.50;71.29
70051;SHT30;57391;51.306;22.680;2023-02-24T03:40:16;6.53;71.27
70051;SHT30;57391;51.306;22.680;2023-02-24T03:42:47;6.55;71.26
70051;SHT30;57391;51.306;22.680;2023-02-24T03:45:23;6.56;71.21
70051;SHT30;57391;51.306;22.680;2023-02-24T03:47:50;6.58;71.20
70051;SHT30;57391;51.306;22.680;2023-02-24T03:50:19;6.60;71.17
70051;SHT30;57391;51.306;22.680;2023-02-24T04:08:01;6.72;71.00
70051;SHT30;57391;51.306;22.680;2023-02-24T04:10:38;6.73;70.90
70051;SHT30;57391;51.306;22.680;2023-02-24T04:13:32;6.75;71.02
70051;SHT30;57391;51.306;22.680;2023-02-24T04:16:23;6.76;70.90
70051;SHT30;57391;51.306;22.680;2023-02-24T04:19:07;6.78;70.88
70051;SHT30;57391;51.306;22.680;2023-02-24T04:21:42;6.79;70.91
70051;SHT30;57391;51.306;22.680;2023-02-24T04:24:18;6.79;70.93
70051;SHT30;57391;51.306;22.680;2023-02-24T04:26:54;6.81;70.94
70051;SHT30;57391;51.306;22.680;2023-02-24T04:29:27;6.82;70.92
70051;SHT30;57391;51.306;22.680;2023-02-24T04:32:05;6.83;70.95
70051;SHT30;57391;51.306;22.680;2023-02-24T04:34:37;6.83;70.91
70051;SHT30;57391;51.306;22.680;2023-02-24T04:37:05;6.83;70.87
70051;SHT30;57391;51.306;22.680;2023-02-24T04:39:33;6.86;70.83
70051;SHT30;57391;51.306;22.680;2023-02-24T04:42:07;6.86;70.86
70051;SHT30;57391;51.306;22.680;2023-02-24T04:44:34;6.86;70.89
70051;SHT30;57391;51.306;22.680;2023-02-24T04:47:02;6.87;70.84
70051;SHT30;57391;51.306;22.680;2023-02-24T04:49:29;6.88;70.83
70051;SHT30;57391;51.306;22.680;2023-02-24T04:51:56;6.88;70.79
70051;SHT30;57391;51.306;22.680;2023-02-24T04:54:23;6.89;70.77
70051;SHT30;57391;51.306;22.680;2023-02-24T04:56:51;6.89;70.82
70051;SHT30;57391;51.306;22.680;2023-02-24T04:59:18;6.88;70.85
70051;SHT30;57391;51.306;22.680;2023-02-24T05:01:48;6.90;70.82
70051;SHT30;57391;51.306;22.680;2023-02-24T05:04:19;6.91;70.85
70051;SHT30;57391;51.306;22.680;2023-02-24T05:06:46;6.91;70.90
70051;SHT30;57391;51.306;22.680;2023-02-24T05:09:14;6.92;70.84
70051;SHT30;57391;51.306;22.680;2023-02-24T05:11:45;6.93;70.85
70051;SHT30;57391;51.306;22.680;2023-02-24T05:14:16;6.94;70.90
70051;SHT30;57391;51.306;22.680;2023-02-24T05:16:47;6.94;70.99
70051;SHT30;57391;51.306;22.680;2023-02-24T05:19:15;6.94;71.00
70051;SHT30;57391;51.306;22.680;2023-02-24T05:22:04;6.95;71.01
70051;SHT30;57391;51.306;22.680;2023-02-24T05:24:37;6.95;71.06
70051;SHT30;57391;51.306;22.680;2023-02-24T05:27:04;6.94;71.09
70051;SHT30;57391;51.306;22.680;2023-02-24T05:29:31;6.95;71.12
70051;SHT30;57391;51.306;22.680;2023-02-24T05:32:01;6.95;71.20
70051;SHT30;57391;51.306;22.680;2023-02-24T05:34:31;6.96;71.20
70051;SHT30;57391;51.306;22.680;2023-02-24T05:36:59;6.95;71.22
70051;SHT30;57391;51.306;22.680;2023-02-24T05:39:35;6.95;71.19
70051;SHT30;57391;51.306;22.680;2023-02-24T05:42:03;6.95;71.17
70051;SHT30;57391;51.306;22.680;2023-02-24T05:44:32;6.96;71.20
70051;SHT30;57391;51.306;22.680;2023-02-24T05:47:01;6.95;71.14
70051;SHT30;57391;51.306;22.680;2023-02-24T05:49:31;6.95;71.11
70051;SHT30;57391;51.306;22.680;2023-02-24T05:52:02;6.95;71.14
70051;SHT30;57391;51.306;22.680;2023-02-24T05:54:36;6.96;71.12
70051;SHT30;57391;51.306;22.680;2023-02-24T05:57:11;6.96;71.11
70051;SHT30;57391;51.306;22.680;2023-02-24T05:59:42;6.98;71.14
70051;SHT30;57391;51.306;22.680;2023-02-24T06:02:11;6.98;71.17
70051;SHT30;57391;51.306;22.680;2023-02-24T06:04:42;6.98;71.17
70051;SHT30;57391;51.306;22.680;2023-02-24T06:07:20;7.00;71.15
70051;SHT30;57391;51.306;22.680;2023-02-24T06:09:53;7.01;71.11
70051;SHT30;57391;51.306;22.680;2023-02-24T06:12:24;7.04;71.15
70051;SHT30;57391;51.306;22.680;2023-02-24T06:14:57;7.06;71.13
70051;SHT30;57391;51.306;22.680;2023-02-24T06:17:24;7.08;71.10
70051;SHT30;57391;51.306;22.680;2023-02-24T06:19:53;7.11;70.98
70051;SHT30;57391;51.306;22.680;2023-02-24T06:22:21;7.13;70.92
70051;SHT30;57391;51.306;22.680;2023-02-24T06:24:51;7.16;70.88
70051;SHT30;57391;51.306;22.680;2023-02-24T06:27:21;7.17;70.90
70051;SHT30;57391;51.306;22.680;2023-02-24T06:29:50;7.18;70.83
70051;SHT30;57391;51.306;22.680;2023-02-24T06:32:20;7.20;70.84
70051;SHT30;57391;51.306;22.680;2023-02-24T06:34:51;7.22;70.82
70051;SHT30;57391;51.306;22.680;2023-02-24T06:37:19;7.24;70.82
70051;SHT30;57391;51.306;22.680;2023-02-24T06:39:48;7.26;70.72
70051;SHT30;57391;51.306;22.680;2023-02-24T06:42:15;7.29;70.58
70051;SHT30;57391;51.306;22.680;2023-02-24T06:44:42;7.31;70.52
70051;SHT30;57391;51.306;22.680;2023-02-24T06:47:10;7.34;70.31
70051;SHT30;57391;51.306;22.680;2023-02-24T06:49:39;7.37;70.24
70051;SHT30;57391;51.306;22.680;2023-02-24T06:52:10;7.39;70.18
70051;SHT30;57391;51.306;22.680;2023-02-24T06:54:43;7.42;70.12
70051;SHT30;57391;51.306;22.680;2023-02-24T06:57:13;7.43;70.07
70051;SHT30;57391;51.306;22.680;2023-02-24T06:59:40;7.47;70.08
70051;SHT30;57391;51.306;22.680;2023-02-24T07:02:08;7.50;69.96
70051;SHT30;57391;51.306;22.680;2023-02-24T07:04:36;7.54;69.81
70051;SHT30;57391;51.306;22.680;2023-02-24T07:07:09;7.56;69.77
70051;SHT30;57391;51.306;22.680;2023-02-24T07:09:39;7.58;69.69
70051;SHT30;57391;51.306;22.680;2023-02-24T07:12:08;7.61;69.50
70051;SHT30;57391;51.306;22.680;2023-02-24T07:14:36;7.63;69.48
70051;SHT30;57391;51.306;22.680;2023-02-24T07:17:04;7.66;69.57
70051;SHT30;57391;51.306;22.680;2023-02-24T07:19:31;7.69;69.38
70051;SHT30;57391;51.306;22.680;2023-02-24T07:22:00;7.72;69.33
70051;SHT30;57391;51.306;22.680;2023-02-24T07:24:30;7.75;69.32
70051;SHT30;57391;51.306;22.680;2023-02-24T07:27:05;7.78;69.30
70051;SHT30;57391;51.306;22.680;2023-02-24T07:29:38;7.79;69.20
70051;SHT30;57391;51.306;22.680;2023-02-24T07:32:06;7.80;69.25
70051;SHT30;57391;51.306;22.680;2023-02-24T07:34:34;7.84;69.35
70051;SHT30;57391;51.306;22.680;2023-02-24T07:37:05;7.86;69.21
70051;SHT30;57391;51.306;22.680;2023-02-24T07:39:33;7.88;69.19
70051;SHT30;57391;51.306;22.680;2023-02-24T07:42:03;7.88;69.22
70051;SHT30;57391;51.306;22.680;2023-02-24T07:44:42;7.90;69.22
70051;SHT30;57391;51.306;22.680;2023-02-24T07:47:11;7.90;69.34
70051;SHT30;57391;51.306;22.680;2023-02-24T07:49:38;7.92;69.38
70051;SHT30;57391;51.306;22.680;2023-02-24T07:52:06;7.92;69.48
70051;SHT30;57391;51.306;22.680;2023-02-24T07:54:34;7.95;69.71
70051;SHT30;57391;51.306;22.680;2023-02-24T07:57:04;7.97;69.74
70051;SHT30;57391;51.306;22.680;2023-02-24T07:59:38;7.98;69.78
70051;SHT30;57391;51.306;22.680;2023-02-24T08:02:08;7.99;69.80
70051;SHT30;57391;51.306;22.680;2023-02-24T08:04:36;8.01;69.85
70051;SHT30;57391;51.306;22.680;2023-02-24T08:07:06;8.01;69.86
70051;SHT30;57391;51.306;22.680;2023-02-24T08:09:39;8.03;70.00
70051;SHT30;57391;51.306;22.680;2023-02-24T08:12:17;8.05;69.94
70051;SHT30;57391;51.306;22.680;2023-02-24T08:14:51;8.06;70.09
70051;SHT30;57391;51.306;22.680;2023-02-24T08:17:21;8.07;70.26
70051;SHT30;57391;51.306;22.680;2023-02-24T08:19:53;8.10;70.34
70051;SHT30;57391;51.306;22.680;2023-02-24T08:22:40;8.12;70.34
70051;SHT30;57391;51.306;22.680;2023-02-24T08:25:10;8.13;70.38
70051;SHT30;57391;51.306;22.680;2023-02-24T08:27:45;8.16;70.51
70051;SHT30;57391;51.306;22.680;2023-02-24T08:30:25;8.17;70.63
70051;SHT30;57391;51.306;22.680;2023-02-24T08:32:55;8.20;70.65
70051;SHT30;57391;51.306;22.680;2023-02-24T08:35:27;8.22;70.66
70051;SHT30;57391;51.306;22.680;2023-02-24T08:38:02;8.23;70.63
70051;SHT30;57391;51.306;22.680;2023-02-24T08:40:35;8.23;70.74
70051;SHT30;57391;51.306;22.680;2023-02-24T08:43:23;8.24;70.89
70051;SHT30;57391;51.306;22.680;2023-02-24T08:48:39;8.23;71.13
70051;SHT30;57391;51.306;22.680;2023-02-24T08:51:23;8.23;71.33
70051;SHT30;57391;51.306;22.680;2023-02-24T08:53:58;8.23;71.44
70051;SHT30;57391;51.306;22.680;2023-02-24T08:56:36;8.23;71.57
70051;SHT30;57391;51.306;22.680;2023-02-24T08:59:10;8.24;71.78
70051;SHT30;57391;51.306;22.680;2023-02-24T09:02:07;8.23;71.97
70051;SHT30;57391;51.306;22.680;2023-02-24T09:04:44;8.23;72.14
70051;SHT30;57391;51.306;22.680;2023-02-24T09:07:19;8.23;72.30
70051;SHT30;57391;51.306;22.680;2023-02-24T09:10:06;8.22;72.44
70051;SHT30;57391;51.306;22.680;2023-02-24T09:12:43;8.22;72.76
70051;SHT30;57391;51.306;22.680;2023-02-24T09:15:11;8.23;72.96
70051;SHT30;57391;51.306;22.680;2023-02-24T09:17:41;8.24;73.04
70051;SHT30;57391;51.306;22.680;2023-02-24T09:20:20;8.24;73.19
70051;SHT30;57391;51.306;22.680;2023-02-24T09:23:07;8.25;73.43
70051;SHT30;57391;51.306;22.680;2023-02-24T09:25:46;8.26;73.69
70051;SHT30;57391;51.306;22.680;2023-02-24T09:30:52;8.27;74.56
70051;SHT30;57391;51.306;22.680;2023-02-24T09:36:00;8.21;75.74
70051;SHT30;57391;51.306;22.680;2023-02-24T09:38:56;8.17;76.27
70051;SHT30;57391;51.306;22.680;2023-02-24T09:44:41;8.11;77.14
70051;SHT30;57391;51.306;22.680;2023-02-24T09:47:16;8.06;77.58
70051;SHT30;57391;51.306;22.680;2023-02-24T09:50:22;8.02;77.99
70051;SHT30;57391;51.306;22.680;2023-02-24T09:53:34;7.98;78.35
70051;SHT30;57391;51.306;22.680;2023-02-24T09:56:17;7.94;78.62
70051;SHT30;57391;51.306;22.680;2023-02-24T09:59:00;7.93;78.83
70051;SHT30;57391;51.306;22.680;2023-02-24T10:05:15;7.85;79.32
70051;SHT30;57391;51.306;22.680;2023-02-24T10:08:13;7.82;79.66
70051;SHT30;57391;51.306;22.680;2023-02-24T10:10:51;7.79;79.95
70051;SHT30;57391;51.306;22.680;2023-02-24T10:13:36;7.79;80.14
70051;SHT30;57391;51.306;22.680;2023-02-24T10:16:23;7.78;80.40
70051;SHT30;57391;51.306;22.680;2023-02-24T10:19:04;7.77;80.54
70051;SHT30;57391;51.306;22.680;2023-02-24T10:21:53;7.75;80.69
70051;SHT30;57391;51.306;22.680;2023-02-24T10:24:41;7.73;80.96
70051;SHT30;57391;51.306;22.680;2023-02-24T10:27:28;7.70;81.09
70051;SHT30;57391;51.306;22.680;2023-02-24T10:34:00;7.67;81.55
70051;SHT30;57391;51.306;22.680;2023-02-24T10:36:33;7.66;81.60
70051;SHT30;57391;51.306;22.680;2023-02-24T10:41:50;7.67;81.77
70051;SHT30;57391;51.306;22.680;2023-02-24T10:44:24;7.67;81.87
70051;SHT30;57391;51.306;22.680;2023-02-24T10:47:05;7.68;81.91
70051;SHT30;57391;51.306;22.680;2023-02-24T10:49:57;7.67;81.94
70051;SHT30;57391;51.306;22.680;2023-02-24T10:55:22;7.65;81.96
70051;SHT30;57391;51.306;22.680;2023-02-24T10:58:00;7.64;82.00
70051;SHT30;57391;51.306;22.680;2023-02-24T11:00:39;7.64;82.03
70051;SHT30;57391;51.306;22.680;2023-02-24T11:03:29;7.64;82.13
70051;SHT30;57391;51.306;22.680;2023-02-24T11:06:17;7.64;82.18
70051;SHT30;57391;51.306;22.680;2023-02-24T11:11:55;7.61;82.21
70051;SHT30;57391;51.306;22.680;2023-02-24T11:14:48;7.61;82.27
70051;SHT30;57391;51.306;22.680;2023-02-24T11:17:49;7.60;82.32
70051;SHT30;57391;51.306;22.680;2023-02-24T11:22:55;7.59;82.42
70051;SHT30;57391;51.306;22.680;2023-02-24T11:36:49;7.53;82.64
70051;SHT30;57391;51.306;22.680;2023-02-24T11:43:05;7.53;82.68
70051;SHT30;57391;51.306;22.680;2023-02-24T11:51:09;7.54;83.04
70051;SHT30;57391;51.306;22.680;2023-02-24T11:56:37;7.56;83.13
70051;SHT30;57391;51.306;22.680;2023-02-24T12:05:09;7.59;83.11
70051;SHT30;57391;51.306;22.680;2023-02-24T12:15:47;7.59;83.19
70051;SHT30;57391;51.306;22.680;2023-02-24T12:21:34;7.60;83.22
70051;SHT30;57391;51.306;22.680;2023-02-24T12:24:08;7.61;83.10
70051;SHT30;57391;51.306;22.680;2023-02-24T12:26:43;7.60;83.11
70051;SHT30;57391;51.306;22.680;2023-02-24T12:41:47;7.59;83.12
70051;SHT30;57391;51.306;22.680;2023-02-24T12:44:30;7.57;83.12
70051;SHT30;57391;51.306;22.680;2023-02-24T12:47:28;7.54;83.24
70051;SHT30;57391;51.306;22.680;2023-02-24T12:56:12;7.60;83.48
70051;SHT30;57391;51.306;22.680;2023-02-24T12:58:51;7.60;83.42
70051;SHT30;57391;51.306;22.680;2023-02-24T13:07:30;7.57;83.44
70051;SHT30;57391;51.306;22.680;2023-02-24T13:15:31;7.54;83.52
70051;SHT30;57391;51.306;22.680;2023-02-24T13:17:58;7.55;83.60
70051;SHT30;57391;51.306;22.680;2023-02-24T13:20:29;7.54;83.65
70051;SHT30;57391;51.306;22.680;2023-02-24T13:22:59;7.54;83.69
70051;SHT30;57391;51.306;22.680;2023-02-24T13:25:33;7.54;83.71
70051;SHT30;57391;51.306;22.680;2023-02-24T13:28:03;7.54;83.71
70051;SHT30;57391;51.306;22.680;2023-02-24T13:31:06;7.55;83.79
70051;SHT30;57391;51.306;22.680;2023-02-24T13:33:38;7.55;83.78
70051;SHT30;57391;51.306;22.680;2023-02-24T13:36:15;7.54;83.81
70051;SHT30;57391;51.306;22.680;2023-02-24T13:38:50;7.54;83.86
70051;SHT30;57391;51.306;22.680;2023-02-24T13:41:37;7.54;83.90
70051;SHT30;57391;51.306;22.680;2023-02-24T13:46:52;7.56;83.92
70051;SHT30;57391;51.306;22.680;2023-02-24T13:53:04;7.56;84.01
70051;SHT30;57391;51.306;22.680;2023-02-24T14:02:21;7.61;84.20
70051;SHT30;57391;51.306;22.680;2023-02-24T14:04:56;7.62;84.20
70051;SHT30;57391;51.306;22.680;2023-02-24T14:07:37;7.61;84.17
70051;SHT30;57391;51.306;22.680;2023-02-24T14:10:16;7.61;84.20
70051;SHT30;57391;51.306;22.680;2023-02-24T14:12:59;7.62;84.21
70051;SHT30;57391;51.306;22.680;2023-02-24T14:15:45;7.62;84.27
70051;SHT30;57391;51.306;22.680;2023-02-24T14:18:21;7.63;84.30
70051;SHT30;57391;51.306;22.680;2023-02-24T14:20:52;7.66;84.30
70051;SHT30;57391;51.306;22.680;2023-02-24T14:23:23;7.67;84.29
70051;SHT30;57391;51.306;22.680;2023-02-24T14:26:01;7.68;84.26
70051;SHT30;57391;51.306;22.680;2023-02-24T14:28:34;7.70;84.23
70051;SHT30;57391;51.306;22.680;2023-02-24T14:31:06;7.70;84.29
70051;SHT30;57391;51.306;22.680;2023-02-24T14:33:40;7.71;84.22
70051;SHT30;57391;51.306;22.680;2023-02-24T14:36:14;7.72;84.19
70051;SHT30;57391;51.306;22.680;2023-02-24T14:38:46;7.72;84.16
70051;SHT30;57391;51.306;22.680;2023-02-24T14:41:41;7.72;84.16
70051;SHT30;57391;51.306;22.680;2023-02-24T14:44:20;7.72;84.15
70051;SHT30;57391;51.306;22.680;2023-02-24T14:46:56;7.74;84.19
70051;SHT30;57391;51.306;22.680;2023-02-24T14:49:32;7.75;84.20
70051;SHT30;57391;51.306;22.680;2023-02-24T14:52:08;7.76;84.16
70051;SHT30;57391;51.306;22.680;2023-02-24T14:54:47;7.79;84.12
70051;SHT30;57391;51.306;22.680;2023-02-24T14:57:23;7.79;84.10
70051;SHT30;57391;51.306;22.680;2023-02-24T14:59:57;7.80;84.10
70051;SHT30;57391;51.306;22.680;2023-02-24T15:02:41;7.80;84.10
70051;SHT30;57391;51.306;22.680;2023-02-24T15:05:16;7.81;84.10
70051;SHT30;57391;51.306;22.680;2023-02-24T15:07:44;7.80;84.09
70051;SHT30;57391;51.306;22.680;2023-02-24T15:10:16;7.80;84.08
70051;SHT30;57391;51.306;22.680;2023-02-24T15:13:09;7.80;84.06
70051;SHT30;57391;51.306;22.680;2023-02-24T15:15:46;7.81;84.10
70051;SHT30;57391;51.306;22.680;2023-02-24T15:18:23;7.82;84.10
70051;SHT30;57391;51.306;22.680;2023-02-24T15:21:05;7.81;84.08
70051;SHT30;57391;51.306;22.680;2023-02-24T15:23:34;7.82;84.10
70051;SHT30;57391;51.306;22.680;2023-02-24T15:26:06;7.81;84.11
70051;SHT30;57391;51.306;22.680;2023-02-24T15:28:36;7.82;84.13
70051;SHT30;57391;51.306;22.680;2023-02-24T15:33:34;7.82;84.13
70051;SHT30;57391;51.306;22.680;2023-02-24T15:36:07;7.84;84.15
70051;SHT30;57391;51.306;22.680;2023-02-24T15:38:41;7.84;84.13
70051;SHT30;57391;51.306;22.680;2023-02-24T15:41:10;7.84;84.10
70051;SHT30;57391;51.306;22.680;2023-02-24T15:49:00;7.86;84.20
70051;SHT30;57391;51.306;22.680;2023-02-24T15:54:14;7.88;84.20
70051;SHT30;57391;51.306;22.680;2023-02-24T15:56:46;7.89;84.18
70051;SHT30;57391;51.306;22.680;2023-02-24T15:59:18;7.90;84.20
70051;SHT30;57391;51.306;22.680;2023-02-24T16:01:48;7.91;84.13
70051;SHT30;57391;51.306;22.680;2023-02-24T16:04:17;7.93;84.09
70051;SHT30;57391;51.306;22.680;2023-02-24T16:06:45;7.94;84.07
70051;SHT30;57391;51.306;22.680;2023-02-24T16:09:31;7.95;84.00
70051;SHT30;57391;51.306;22.680;2023-02-24T16:12:04;7.95;83.99
70051;SHT30;57391;51.306;22.680;2023-02-24T16:14:46;7.96;84.00
70051;SHT30;57391;51.306;22.680;2023-02-24T16:17:17;7.96;83.99
70051;SHT30;57391;51.306;22.680;2023-02-24T16:20:06;7.96;84.00
70051;SHT30;57391;51.306;22.680;2023-02-24T16:22:53;7.95;84.01
70051;SHT30;57391;51.306;22.680;2023-02-24T16:25:22;7.95;84.05
70051;SHT30;57391;51.306;22.680;2023-02-24T16:27:51;7.94;84.10
70051;SHT30;57391;51.306;22.680;2023-02-24T16:30:24;7.94;84.09
70051;SHT30;57391;51.306;22.680;2023-02-24T16:32:56;7.95;84.10
70051;SHT30;57391;51.306;22.680;2023-02-24T16:35:26;7.94;84.06
70051;SHT30;57391;51.306;22.680;2023-02-24T16:37:54;7.95;84.05
70051;SHT30;57391;51.306;22.680;2023-02-24T16:40:25;7.95;83.98
70051;SHT30;57391;51.306;22.680;2023-02-24T16:42:56;7.94;83.91
70051;SHT30;57391;51.306;22.680;2023-02-24T16:45:27;7.94;83.86
70051;SHT30;57391;51.306;22.680;2023-02-24T16:47:56;7.92;83.79
70051;SHT30;57391;51.306;22.680;2023-02-24T16:50:33;7.90;83.65
70051;SHT30;57391;51.306;22.680;2023-02-24T16:53:07;7.87;83.63
70051;SHT30;57391;51.306;22.680;2023-02-24T16:55:39;7.83;83.63
70051;SHT30;57391;51.306;22.680;2023-02-24T16:58:09;7.82;83.65
70051;SHT30;57391;51.306;22.680;2023-02-24T17:00:37;7.82;83.70
70051;SHT30;57391;51.306;22.680;2023-02-24T17:05:59;7.80;83.70
70051;SHT30;57391;51.306;22.680;2023-02-24T17:08:26;7.80;83.75
70051;SHT30;57391;51.306;22.680;2023-02-24T17:10:53;7.77;83.82
70051;SHT30;57391;51.306;22.680;2023-02-24T17:13:21;7.76;83.86
70051;SHT30;57391;51.306;22.680;2023-02-24T17:15:49;7.75;83.84
70051;SHT30;57391;51.306;22.680;2023-02-24T17:18:23;7.73;83.80
70051;SHT30;57391;51.306;22.680;2023-02-24T17:20:51;7.72;83.86
70051;SHT30;57391;51.306;22.680;2023-02-24T17:23:20;7.70;83.90
70051;SHT30;57391;51.306;22.680;2023-02-24T17:25:49;7.69;83.99
70051;SHT30;57391;51.306;22.680;2023-02-24T17:28:20;7.69;84.00
70051;SHT30;57391;51.306;22.680;2023-02-24T17:30:48;7.68;84.07
70051;SHT30;57391;51.306;22.680;2023-02-24T17:33:15;7.68;84.16
70051;SHT30;57391;51.306;22.680;2023-02-24T17:35:42;7.67;84.20
70051;SHT30;57391;51.306;22.680;2023-02-24T17:38:15;7.67;84.28
70051;SHT30;57391;51.306;22.680;2023-02-24T17:40:45;7.67;84.33
70051;SHT30;57391;51.306;22.680;2023-02-24T17:43:13;7.67;84.40
70051;SHT30;57391;51.306;22.680;2023-02-24T17:45:41;7.68;84.42
70051;SHT30;57391;51.306;22.680;2023-02-24T17:48:11;7.69;84.41
70051;SHT30;57391;51.306;22.680;2023-02-24T17:50:41;7.70;84.46
70051;SHT30;57391;51.306;22.680;2023-02-24T17:53:10;7.70;84.39
70051;SHT30;57391;51.306;22.680;2023-02-24T17:55:37;7.72;84.34
70051;SHT30;57391;51.306;22.680;2023-02-24T17:58:06;7.73;84.30
70051;SHT30;57391;51.306;22.680;2023-02-24T18:00:34;7.72;84.27
70051;SHT30;57391;51.306;22.680;2023-02-24T18:03:03;7.72;84.20
70051;SHT30;57391;51.306;22.680;2023-02-24T18:05:31;7.72;84.20
70051;SHT30;57391;51.306;22.680;2023-02-24T18:07:58;7.72;84.12
70051;SHT30;57391;51.306;22.680;2023-02-24T18:10:25;7.71;84.05
70051;SHT30;57391;51.306;22.680;2023-02-24T18:12:53;7.71;84.00
70051;SHT30;57391;51.306;22.680;2023-02-24T18:15:20;7.70;84.00
70051;SHT30;57391;51.306;22.680;2023-02-24T18:17:47;7.69;84.07
70051;SHT30;57391;51.306;22.680;2023-02-24T18:20:14;7.68;84.03
70051;SHT30;57391;51.306;22.680;2023-02-24T18:22:41;7.66;84.00
70051;SHT30;57391;51.306;22.680;2023-02-24T18:25:09;7.66;83.97
70051;SHT30;57391;51.306;22.680;2023-02-24T18:27:36;7.66;84.01
70051;SHT30;57391;51.306;22.680;2023-02-24T18:30:03;7.62;84.02
70051;SHT30;57391;51.306;22.680;2023-02-24T18:32:32;7.61;84.05
70051;SHT30;57391;51.306;22.680;2023-02-24T18:34:59;7.59;84.08
70051;SHT30;57391;51.306;22.680;2023-02-24T18:37:26;7.58;84.11
70051;SHT30;57391;51.306;22.680;2023-02-24T18:39:54;7.57;84.19
70051;SHT30;57391;51.306;22.680;2023-02-24T18:42:21;7.56;84.26
70051;SHT30;57391;51.306;22.680;2023-02-24T18:44:48;7.56;84.35
70051;SHT30;57391;51.306;22.680;2023-02-24T18:47:15;7.60;84.62
70051;SHT30;57391;51.306;22.680;2023-02-24T18:49:42;7.65;84.59
70051;SHT30;57391;51.306;22.680;2023-02-24T18:52:09;7.65;84.32